ArgentinaFixed distance
Destino Madryn Carrera de Aventura Edicion
7–8 Sep2025
Distance
50km
Finishers
14693 men53 women
Winning time
4:36:16h
Median pace
6.57km/h
Pace distribution
146 finishers · 4.84–10.86 km/h · mean 6.80
Every finisher ran the same 50 km course, so these paces are directly comparable.
Histogram of finisher pace. 146 finishers ranged from 4.84 to 10.86 kilometres per hour, with a mean of 6.80 and a median of 6.57. The busiest band is 5.5 to 6.0 kilometres per hour, with 25 finishers.
Results
Ranks 1–50 of 146
| Rank | Runner | Time | Pace | Cat. | Placing |
|---|---|---|---|---|---|
| 1 | *Chubut | 4:36:16h | 10.86 | M45 | 1st M · 1st M45 |
| 2 | LA Huella | 4:47:26h | 10.44 | M40 | 2nd M · 1st M40 |
| 3 | Proactive | 4:57:52h | 10.07 | — | 3rd M |
| 4 | Vo2Entrena | 5:07:04h | 9.77 | M40 | 4th M · 2nd M40 |
| 5 | UR Team | 5:07:55h | 9.74 | M35 | 5th M · 1st M35 |
| 6 | LA Huella | 5:19:09h | 9.40 | M40 | 6th M · 3rd M40 |
| 7 | LA Huella | 5:25:02h | 9.23 | M35 | 7th M · 2nd M35 |
| 8 | Maca Tobiano | 5:26:00h | 9.20 | M45 | 8th M · 2nd M45 |
| 9 | Phorma Running Team | 5:34:19h | 8.97 | — | 1st F |
| 10 | Tribu de Atletas | 5:41:13h | 8.79 | — | 9th M |
| 11 | Oscarsanjuanrunning | 5:44:01h | 8.72 | — | 10th M |
| 12 | A Tiempo Run | 5:45:07h | 8.69 | M40 | 11th M · 4th M40 |
| 13 | Actitud | 5:46:14h | 8.66 | M23 | 12th M · 1st M23 |
| 14 | GM Running | 5:54:18h | 8.47 | — | 13th M |
| 15 | LA Huella | 5:55:21h | 8.44 | — | 14th M |
| 16 | UR Team | 6:01:01h | 8.31 | M23 | 15th M · 2nd M23 |
| 17 | Forest Run Group | 6:06:30h | 8.19 | — | 16th M |
| 18 | Libre | 6:07:05h | 8.17 | — | 17th M |
| 19 | KR Running | 6:08:18h | 8.15 | — | 18th M |
| 20 | LA Huella | 6:10:42h | 8.09 | W45 | 2nd F · 1st W45 |
| 21 | PAT Palermo | 6:11:22h | 8.08 | M35 | 19th M · 3rd M35 |
| 22 | *Caba | 6:11:22h | 8.08 | M35 | 19th M · 3rd M35 |
| 23 | Banco Nación | 6:12:36h | 8.05 | M23 | 21st M · 3rd M23 |
| 24 | Correr Ayuda | 6:13:38h | 8.03 | M45 | 22nd M · 3rd M45 |
| 25 | Banco Nación | 6:14:02h | 8.02 | M35 | 23rd M · 5th M35 |
| 26 | Maxilopezruningteam | 6:16:45h | 7.96 | M40 | 24th M · 5th M40 |
| 27 | Mellis | 6:16:53h | 7.96 | — | 25th M |
| 28 | LA Huella | 6:19:26h | 7.91 | — | 26th M |
| 29 | DEL Viso Corre Tean | 6:21:23h | 7.87 | M50 | 27th M · 1st M50 |
| 30 | Union Running Rawson | 6:21:28h | 7.86 | — | 28th M |
| 31 | Nahuel Luengo Running ... | 6:21:46h | 7.86 | M40 | 29th M · 6th M40 |
| 32 | Teff | 6:22:50h | 7.84 | — | 30th M |
| 33 | Runners FOX | 6:23:25h | 7.82 | W45 | 3rd F · 2nd W45 |
| 34 | Ranningteangarin | 6:23:26h | 7.82 | — | 31st M |
| 35 | Aguilas DEL SUR | 6:25:35h | 7.78 | M45 | 32nd M · 4th M45 |
| 36 | *Chubut | 6:34:59h | 7.59 | M45 | 33rd M · 5th M45 |
| 37 | LA Huella | 6:36:53h | 7.56 | — | 4th F |
| 38 | Secla | 6:37:19h | 7.55 | — | 34th M |
| 39 | HR Trail | 6:39:51h | 7.50 | — | 5th F |
| 40 | *Buenos Aires | 6:40:13h | 7.50 | — | 35th M |
| 41 | Team Zampa | 6:41:22h | 7.47 | M23 | 36th M · 4th M23 |
| 42 | Gustatrail | 6:41:33h | 7.47 | W40 | 6th F · 1st W40 |
| 43 | LOS Huemules | 6:43:30h | 7.43 | M45 | 37th M · 6th M45 |
| 44 | MB Positive | 6:47:24h | 7.36 | M35 | 38th M · 6th M35 |
| 45 | Atletismo RÍO Grande | 6:48:21h | 7.35 | W45 | 7th F · 3rd W45 |
| 46 | Corredores DEL Viento | 6:48:46h | 7.34 | — | 8th F |
| 47 | Running Secla | 6:48:50h | 7.34 | — | 39th M |
| 48 | *Neuquen | 6:49:17h | 7.33 | M50 | 40th M · 2nd M50 |
| 49 | FT Running | 6:51:05h | 7.30 | — | 41st M |
| 50 | Kilómetro Cero | 6:51:35h | 7.29 | W45 | 9th F · 4th W45 |
- 1*Chubut1st M · 1st M45Time4:36:16hPace10.86Cat.M45
- 2LA Huella2nd M · 1st M40Time4:47:26hPace10.44Cat.M40
- 3Proactive3rd MTime4:57:52hPace10.07
- 4Vo2Entrena4th M · 2nd M40Time5:07:04hPace9.77Cat.M40
- 5UR Team5th M · 1st M35Time5:07:55hPace9.74Cat.M35
- 6LA Huella6th M · 3rd M40Time5:19:09hPace9.40Cat.M40
- 7LA Huella7th M · 2nd M35Time5:25:02hPace9.23Cat.M35
- 8Maca Tobiano8th M · 2nd M45Time5:26:00hPace9.20Cat.M45
- 9Phorma Running Team1st FTime5:34:19hPace8.97
- 10Tribu de Atletas9th MTime5:41:13hPace8.79
- 11Oscarsanjuanrunning10th MTime5:44:01hPace8.72
- 12A Tiempo Run11th M · 4th M40Time5:45:07hPace8.69Cat.M40
- 13Actitud12th M · 1st M23Time5:46:14hPace8.66Cat.M23
- 14GM Running13th MTime5:54:18hPace8.47
- 15LA Huella14th MTime5:55:21hPace8.44
- 16UR Team15th M · 2nd M23Time6:01:01hPace8.31Cat.M23
- 17Forest Run Group16th MTime6:06:30hPace8.19
- 18Libre17th MTime6:07:05hPace8.17
- 19KR Running18th MTime6:08:18hPace8.15
- 20LA Huella2nd F · 1st W45Time6:10:42hPace8.09Cat.W45
- 21PAT Palermo19th M · 3rd M35Time6:11:22hPace8.08Cat.M35
- 22*Caba19th M · 3rd M35Time6:11:22hPace8.08Cat.M35
- 23Banco Nación21st M · 3rd M23Time6:12:36hPace8.05Cat.M23
- 24Correr Ayuda22nd M · 3rd M45Time6:13:38hPace8.03Cat.M45
- 25Banco Nación23rd M · 5th M35Time6:14:02hPace8.02Cat.M35
- 26Maxilopezruningteam24th M · 5th M40Time6:16:45hPace7.96Cat.M40
- 27Mellis25th MTime6:16:53hPace7.96
- 28LA Huella26th MTime6:19:26hPace7.91
- 29DEL Viso Corre Tean27th M · 1st M50Time6:21:23hPace7.87Cat.M50
- 30Union Running Rawson28th MTime6:21:28hPace7.86
- 31Nahuel Luengo Running ...29th M · 6th M40Time6:21:46hPace7.86Cat.M40
- 32Teff30th MTime6:22:50hPace7.84
- 33Runners FOX3rd F · 2nd W45Time6:23:25hPace7.82Cat.W45
- 34Ranningteangarin31st MTime6:23:26hPace7.82
- 35Aguilas DEL SUR32nd M · 4th M45Time6:25:35hPace7.78Cat.M45
- 36*Chubut33rd M · 5th M45Time6:34:59hPace7.59Cat.M45
- 37LA Huella4th FTime6:36:53hPace7.56
- 38Secla34th MTime6:37:19hPace7.55
- 39HR Trail5th FTime6:39:51hPace7.50
- 40*Buenos Aires35th MTime6:40:13hPace7.50
- 41Team Zampa36th M · 4th M23Time6:41:22hPace7.47Cat.M23
- 42Gustatrail6th F · 1st W40Time6:41:33hPace7.47Cat.W40
- 43LOS Huemules37th M · 6th M45Time6:43:30hPace7.43Cat.M45
- 44MB Positive38th M · 6th M35Time6:47:24hPace7.36Cat.M35
- 45Atletismo RÍO Grande7th F · 3rd W45Time6:48:21hPace7.35Cat.W45
- 46Corredores DEL Viento8th FTime6:48:46hPace7.34
- 47Running Secla39th MTime6:48:50hPace7.34
- 48*Neuquen40th M · 2nd M50Time6:49:17hPace7.33Cat.M50
- 49FT Running41st MTime6:51:05hPace7.30
- 50Kilómetro Cero9th F · 4th W45Time6:51:35hPace7.29Cat.W45
Showing ranks 1–50 of 146